Time;durP1;ratioP1;P1;durP2;ratioP2;P2;SDS_P1;SDS_P2;PMS_P1;PMS_P2;Temp;Humidity;BMP_temperature;BMP_pressure;BME280_temperature;BME280_humidity;BME280_pressure;Samples;Min_cycle;Max_cycle;Signal;HPM_P1;HPM_P2
2023/05/23 00:00:46;;;;;;;5.65;4.05;;;;;;;;;;5082537;28;20231;-53
2023/05/23 00:03:14;;;;;;;3.85;3.47;;;;;;;;;;5082743;28;20249;-53
2023/05/23 00:05:43;;;;;;;5.63;4.05;;;;;;;;;;5089728;28;20272;-52
2023/05/23 00:08:09;;;;;;;5.30;3.33;;;;;;;;;;5085238;28;20227;-53
2023/05/23 00:10:36;;;;;;;4.43;4.03;;;;;;;;;;5085383;28;20230;-53
2023/05/23 00:13:04;;;;;;;4.47;3.60;;;;;;;;;;5081166;28;20234;-53
2023/05/23 00:15:32;;;;;;;6.00;4.00;;;;;;;;;;5085412;28;20327;-52
2023/05/23 00:17:59;;;;;;;9.85;3.63;;;;;;;;;;5083295;28;20227;-52
2023/05/23 00:20:26;;;;;;;5.45;3.70;;;;;;;;;;5087437;28;20235;-52
2023/05/23 00:22:57;;;;;;;6.40;3.70;;;;;;;;;;5078187;28;20227;-53
2023/05/23 00:25:24;;;;;;;5.80;4.32;;;;;;;;;;5072214;28;20347;-53
2023/05/23 00:27:51;;;;;;;10.32;4.32;;;;;;;;;;5083481;28;20266;-53
2023/05/23 00:30:17;;;;;;;4.03;3.63;;;;;;;;;;5082035;28;20315;-53
2023/05/23 00:32:44;;;;;;;5.38;3.88;;;;;;;;;;5080585;28;20288;-53
2023/05/23 00:35:11;;;;;;;4.35;3.60;;;;;;;;;;5080719;28;20230;-52
2023/05/23 00:37:37;;;;;;;4.05;3.67;;;;;;;;;;5080366;28;20229;-53
2023/05/23 00:40:07;;;;;;;4.68;3.47;;;;;;;;;;5080467;27;20880;-53
2023/05/23 00:42:33;;;;;;;5.07;4.28;;;;;;;;;;5081190;28;20238;-52
2023/05/23 00:45:00;;;;;;;4.55;4.15;;;;;;;;;;5078859;28;20253;-53
2023/05/23 00:47:27;;;;;;;4.13;3.72;;;;;;;;;;5076550;28;20319;-52
2023/05/23 00:49:53;;;;;;;3.78;3.47;;;;;;;;;;5073582;28;20909;-53
2023/05/23 00:52:20;;;;;;;6.40;4.13;;;;;;;;;;5077990;28;20283;-52
2023/05/23 00:54:47;;;;;;;5.78;3.90;;;;;;;;;;5081779;28;20264;-53
2023/05/23 00:57:15;;;;;;;4.93;4.10;;;;;;;;;;5080567;28;20298;-52
2023/05/23 00:59:43;;;;;;;4.43;3.58;;;;;;;;;;5081230;28;20266;-53
2023/05/23 01:02:11;;;;;;;6.35;5.18;;;;;;;;;;5080772;28;20235;-52
2023/05/23 01:04:38;;;;;;;4.90;3.90;;;;;;;;;;5083523;28;20241;-52
2023/05/23 01:07:04;;;;;;;8.68;4.00;;;;;;;;;;5079183;28;20230;-53
2023/05/23 01:09:32;;;;;;;6.53;4.18;;;;;;;;;;5084817;28;20292;-53
2023/05/23 01:12:03;;;;;;;4.28;3.72;;;;;;;;;;5080941;28;20238;-53
2023/05/23 01:14:34;;;;;;;4.40;4.00;;;;;;;;;;5078428;28;20351;-52
2023/05/23 01:17:02;;;;;;;4.78;4.30;;;;;;;;;;5078436;28;20234;-51
2023/05/23 01:19:41;;;;;;;7.88;3.80;;;;;;;;;;5078598;28;20269;-53
2023/05/23 01:22:11;;;;;;;3.95;3.47;;;;;;;;;;5068420;28;20302;-53
2023/05/23 01:24:46;;;;;;;7.07;4.72;;;;;;;;;;5077280;28;20461;-53
2023/05/23 01:27:19;;;;;;;6.60;4.07;;;;;;;;;;5078899;28;20892;-52
2023/05/23 01:29:48;;;;;;;4.53;4.10;;;;;;;;;;5079317;28;20284;-53
2023/05/23 01:32:16;;;;;;;4.13;3.72;;;;;;;;;;5079302;28;20258;-53
2023/05/23 01:34:42;;;;;;;4.68;4.22;;;;;;;;;;5081549;28;20231;-53
2023/05/23 01:37:10;;;;;;;5.25;4.20;;;;;;;;;;5078971;28;20226;-53
2023/05/23 01:39:37;;;;;;;4.20;3.75;;;;;;;;;;5077293;28;20230;-53
2023/05/23 01:42:04;;;;;;;8.02;3.97;;;;;;;;;;5078309;28;20490;-52
2023/05/23 01:44:31;;;;;;;4.57;3.30;;;;;;;;;;5080823;28;20244;-53
2023/05/23 01:46:59;;;;;;;4.95;3.97;;;;;;;;;;5079181;28;20226;-52
2023/05/23 01:49:26;;;;;;;4.60;3.80;;;;;;;;;;5074494;28;20820;-53
2023/05/23 01:51:53;;;;;;;6.57;4.68;;;;;;;;;;5079484;28;20287;-52
2023/05/23 01:54:20;;;;;;;4.30;3.90;;;;;;;;;;5078928;28;20231;-53
2023/05/23 01:56:47;;;;;;;5.93;4.28;;;;;;;;;;5076765;28;20230;-54
2023/05/23 01:59:14;;;;;;;4.15;3.60;;;;;;;;;;5078403;28;20263;-54
2023/05/23 02:01:41;;;;;;;5.35;4.00;;;;;;;;;;5072101;28;20239;-54
2023/05/23 02:04:09;;;;;;;3.63;3.33;;;;;;;;;;5080482;28;20238;-53
2023/05/23 02:06:36;;;;;;;3.95;3.63;;;;;;;;;;5080396;28;20230;-55
2023/05/23 02:09:03;;;;;;;3.92;3.55;;;;;;;;;;5080177;28;20227;-53
2023/05/23 02:11:29;;;;;;;4.22;3.83;;;;;;;;;;5078469;28;20770;-53
2023/05/23 02:13:56;;;;;;;5.40;4.68;;;;;;;;;;5078350;28;20241;-53
2023/05/23 02:16:24;;;;;;;4.03;3.63;;;;;;;;;;5078806;28;20230;-53
2023/05/23 02:18:52;;;;;;;3.63;3.33;;;;;;;;;;5080456;28;20246;-52
2023/05/23 02:21:20;;;;;;;4.57;3.97;;;;;;;;;;5078639;28;20882;-53
2023/05/23 02:23:47;;;;;;;4.70;3.97;;;;;;;;;;5074836;28;20715;-52
2023/05/23 02:26:13;;;;;;;6.47;4.22;;;;;;;;;;5080127;28;20306;-52
2023/05/23 02:28:41;;;;;;;4.97;4.38;;;;;;;;;;5077834;28;20245;-52
2023/05/23 02:31:07;;;;;;;4.03;3.60;;;;;;;;;;5076052;28;20238;-53
2023/05/23 02:33:34;;;;;;;7.72;4.20;;;;;;;;;;5079017;28;20269;-53
2023/05/23 02:36:01;;;;;;;4.57;3.60;;;;;;;;;;5079280;28;20250;-52
2023/05/23 02:38:29;;;;;;;4.85;4.28;;;;;;;;;;5079232;28;20320;-53
2023/05/23 02:40:56;;;;;;;5.15;4.20;;;;;;;;;;5065856;28;20242;-52
2023/05/23 02:43:23;;;;;;;5.95;4.25;;;;;;;;;;5076478;28;20265;-53
2023/05/23 02:45:49;;;;;;;7.63;4.57;;;;;;;;;;5077874;28;20233;-52
2023/05/23 02:48:16;;;;;;;4.93;3.92;;;;;;;;;;5076447;28;20639;-52
2023/05/23 02:50:43;;;;;;;7.30;3.97;;;;;;;;;;5079417;28;20226;-53
2023/05/23 02:53:10;;;;;;;4.97;4.47;;;;;;;;;;5076154;28;20230;-52
2023/05/23 02:55:38;;;;;;;5.07;3.95;;;;;;;;;;5078166;28;20255;-53
2023/05/23 02:58:05;;;;;;;4.80;4.38;;;;;;;;;;5077701;28;20318;-52
2023/05/23 03:00:32;;;;;;;5.15;4.63;;;;;;;;;;5077037;28;20227;-53
2023/05/23 03:02:59;;;;;;;7.75;4.70;;;;;;;;;;5069091;28;20230;-53
2023/05/23 03:05:26;;;;;;;6.57;5.05;;;;;;;;;;5080111;28;20239;-53
2023/05/23 03:07:53;;;;;;;6.63;4.10;;;;;;;;;;5079163;28;20936;-53
2023/05/23 03:10:20;;;;;;;4.30;3.90;;;;;;;;;;5079553;28;20235;-54
2023/05/23 03:12:48;;;;;;;5.30;4.75;;;;;;;;;;5077929;28;20333;-52
2023/05/23 03:15:15;;;;;;;5.28;4.78;;;;;;;;;;5078291;28;20223;-53
2023/05/23 03:17:41;;;;;;;5.55;4.95;;;;;;;;;;5083367;28;20234;-53
2023/05/23 03:20:08;;;;;;;5.03;4.60;;;;;;;;;;5082985;28;20729;-54
2023/05/23 03:22:35;;;;;;;10.73;5.32;;;;;;;;;;5080657;28;20242;-54
2023/05/23 03:25:02;;;;;;;5.30;4.80;;;;;;;;;;5083290;27;20704;-52
2023/05/23 03:27:28;;;;;;;9.38;5.55;;;;;;;;;;5083758;28;20241;-53
2023/05/23 03:29:57;;;;;;;9.43;6.43;;;;;;;;;;5085193;28;20234;-52
2023/05/23 03:32:23;;;;;;;5.82;4.63;;;;;;;;;;5079960;28;20237;-52
2023/05/23 03:34:50;;;;;;;6.88;5.38;;;;;;;;;;5081310;28;20607;-53
2023/05/23 03:37:16;;;;;;;6.40;4.88;;;;;;;;;;5081006;28;20577;-52
2023/05/23 03:39:43;;;;;;;5.53;4.78;;;;;;;;;;5082540;28;20368;-52
2023/05/23 03:42:10;;;;;;;5.47;4.88;;;;;;;;;;5076178;28;20238;-53
2023/05/23 03:44:37;;;;;;;9.75;4.82;;;;;;;;;;5083196;28;20253;-53
2023/05/23 03:47:05;;;;;;;11.38;4.65;;;;;;;;;;5076902;28;20230;-53
2023/05/23 03:49:32;;;;;;;6.80;4.53;;;;;;;;;;5081705;28;20476;-52
2023/05/23 03:51:58;;;;;;;5.25;4.80;;;;;;;;;;5077719;28;20266;-52
2023/05/23 03:54:25;;;;;;;5.55;4.95;;;;;;;;;;5080429;28;20338;-52
2023/05/23 03:56:52;;;;;;;5.50;4.95;;;;;;;;;;5084026;28;20466;-52
2023/05/23 03:59:18;;;;;;;4.85;4.35;;;;;;;;;;5082156;28;20246;-53
2023/05/23 04:01:45;;;;;;;5.07;4.60;;;;;;;;;;5074716;28;20788;-53
2023/05/23 04:04:13;;;;;;;7.20;4.78;;;;;;;;;;5079266;27;20836;-54
2023/05/23 04:06:40;;;;;;;5.45;4.95;;;;;;;;;;5081299;28;20222;-53
2023/05/23 04:09:07;;;;;;;5.25;4.75;;;;;;;;;;5076873;28;20318;-53
2023/05/23 04:11:35;;;;;;;6.07;5.28;;;;;;;;;;5081360;28;20643;-53
2023/05/23 04:14:02;;;;;;;9.90;5.43;;;;;;;;;;5079857;28;20233;-54
2023/05/23 04:16:31;;;;;;;6.45;5.85;;;;;;;;;;5081724;28;20234;-54
2023/05/23 04:18:58;;;;;;;6.97;5.57;;;;;;;;;;5085052;28;20256;-53
2023/05/23 04:21:26;;;;;;;5.88;5.28;;;;;;;;;;5079328;28;20286;-53
2023/05/23 04:23:53;;;;;;;5.97;4.60;;;;;;;;;;5077318;28;20388;-52
2023/05/23 04:26:20;;;;;;;5.97;5.47;;;;;;;;;;5079294;28;20227;-52
2023/05/23 04:28:47;;;;;;;4.78;4.32;;;;;;;;;;5080330;28;20222;-53
2023/05/23 04:31:14;;;;;;;8.98;5.03;;;;;;;;;;5075324;28;20984;-53
2023/05/23 04:33:41;;;;;;;5.78;5.28;;;;;;;;;;5074986;28;20786;-53
2023/05/23 04:36:09;;;;;;;5.50;5.00;;;;;;;;;;5078198;28;20233;-53
2023/05/23 04:38:37;;;;;;;5.60;4.93;;;;;;;;;;5081979;28;20234;-53
2023/05/23 04:41:04;;;;;;;4.90;4.43;;;;;;;;;;5081004;28;20787;-53
2023/05/23 04:43:32;;;;;;;6.70;5.60;;;;;;;;;;5079697;28;20876;-53
2023/05/23 04:45:59;;;;;;;6.05;5.45;;;;;;;;;;5077309;28;20234;-53
2023/05/23 04:48:26;;;;;;;7.18;5.18;;;;;;;;;;5079595;28;20233;-52
2023/05/23 04:50:55;;;;;;;8.43;5.75;;;;;;;;;;5078054;28;20303;-53
2023/05/23 04:53:21;;;;;;;6.03;4.90;;;;;;;;;;5079359;28;20288;-52
2023/05/23 04:55:49;;;;;;;9.02;5.28;;;;;;;;;;5081547;28;20322;-52
2023/05/23 04:58:16;;;;;;;7.43;5.75;;;;;;;;;;5076592;28;20245;-52
2023/05/23 05:00:43;;;;;;;6.88;5.05;;;;;;;;;;5077745;28;20996;-52
2023/05/23 05:03:10;;;;;;;5.43;4.82;;;;;;;;;;5081014;28;20282;-52
2023/05/23 05:05:37;;;;;;;6.88;5.47;;;;;;;;;;5075106;28;20239;-52
2023/05/23 05:08:04;;;;;;;6.82;4.95;;;;;;;;;;5079557;28;20317;-52
2023/05/23 05:10:30;;;;;;;5.85;5.25;;;;;;;;;;5083546;28;20231;-52
2023/05/23 05:12:58;;;;;;;6.90;4.43;;;;;;;;;;5072935;28;20242;-52
2023/05/23 05:15:25;;;;;;;5.25;4.72;;;;;;;;;;5076022;28;20223;-53
2023/05/23 05:17:52;;;;;;;7.30;4.82;;;;;;;;;;5074521;28;20413;-52
2023/05/23 05:20:20;;;;;;;4.95;4.47;;;;;;;;;;5072023;28;20251;-53
2023/05/23 05:22:47;;;;;;;6.07;5.07;;;;;;;;;;5074649;28;20304;-52
2023/05/23 05:25:14;;;;;;;7.75;5.35;;;;;;;;;;5078168;28;20714;-53
2023/05/23 05:27:41;;;;;;;6.05;5.05;;;;;;;;;;5076908;28;20326;-52
2023/05/23 05:30:10;;;;;;;8.98;5.00;;;;;;;;;;5082988;28;20258;-52
2023/05/23 05:32:37;;;;;;;6.30;5.28;;;;;;;;;;5078986;28;20238;-54
2023/05/23 05:35:04;;;;;;;6.03;5.07;;;;;;;;;;5080868;28;20230;-53
2023/05/23 05:37:30;;;;;;;5.75;5.15;;;;;;;;;;5080685;28;20265;-54
2023/05/23 05:39:57;;;;;;;6.60;5.18;;;;;;;;;;5078416;28;20358;-53
2023/05/23 05:42:24;;;;;;;5.80;5.30;;;;;;;;;;5078874;28;20982;-52
2023/05/23 05:44:51;;;;;;;5.88;5.28;;;;;;;;;;5080784;28;20226;-52
2023/05/23 05:47:19;;;;;;;7.05;5.53;;;;;;;;;;5078918;28;20740;-52
2023/05/23 05:49:46;;;;;;;6.57;5.05;;;;;;;;;;5080185;28;20238;-54
2023/05/23 05:52:12;;;;;;;6.88;5.32;;;;;;;;;;5079029;28;20303;-52
2023/05/23 05:54:39;;;;;;;8.75;5.47;;;;;;;;;;5080245;28;20321;-52
2023/05/23 05:57:05;;;;;;;7.57;5.55;;;;;;;;;;5079096;28;20226;-53
2023/05/23 05:59:32;;;;;;;7.00;4.72;;;;;;;;;;5079252;28;20820;-53
2023/05/23 06:01:59;;;;;;;8.13;6.05;;;;;;;;;;5072108;28;20296;-53
2023/05/23 06:04:27;;;;;;;13.07;4.95;;;;;;;;;;5081797;28;20222;-53
2023/05/23 06:06:53;;;;;;;9.27;5.07;;;;;;;;;;5080616;28;20728;-53
2023/05/23 06:09:20;;;;;;;5.53;5.03;;;;;;;;;;5078939;28;20255;-53
2023/05/23 06:11:46;;;;;;;6.53;5.28;;;;;;;;;;5078291;28;20238;-52
2023/05/23 06:14:13;;;;;;;7.50;5.32;;;;;;;;;;5080178;28;20234;-53
2023/05/23 06:16:39;;;;;;;7.97;6.30;;;;;;;;;;5080669;28;20347;-53
2023/05/23 06:19:07;;;;;;;5.97;5.25;;;;;;;;;;5080570;28;20226;-53
2023/05/23 06:21:35;;;;;;;11.82;4.85;;;;;;;;;;5075973;28;20255;-53
2023/05/23 06:24:02;;;;;;;8.10;5.00;;;;;;;;;;5059376;28;20234;-53
2023/05/23 06:26:29;;;;;;;7.82;4.97;;;;;;;;;;5077316;28;20713;-53
2023/05/23 06:28:55;;;;;;;5.00;4.50;;;;;;;;;;5079922;28;20230;-52
2023/05/23 06:31:22;;;;;;;7.55;5.70;;;;;;;;;;5077433;28;22614;-53
2023/05/23 06:33:48;;;;;;;8.68;4.90;;;;;;;;;;5085880;28;20229;-53
2023/05/23 06:36:15;;;;;;;8.27;5.70;;;;;;;;;;5082932;28;20250;-53
2023/05/23 06:38:43;;;;;;;7.45;4.88;;;;;;;;;;5085336;28;20256;-52
2023/05/23 06:41:10;;;;;;;5.70;4.80;;;;;;;;;;5087005;28;20253;-53
2023/05/23 06:43:36;;;;;;;6.85;4.82;;;;;;;;;;5083077;28;20242;-52
2023/05/23 06:46:03;;;;;;;5.72;5.13;;;;;;;;;;5081794;28;20237;-53
2023/05/23 06:48:30;;;;;;;6.10;4.90;;;;;;;;;;5081922;28;20230;-53
2023/05/23 06:50:57;;;;;;;5.63;5.13;;;;;;;;;;5085444;28;20865;-53
2023/05/23 06:53:23;;;;;;;5.50;4.68;;;;;;;;;;5080302;28;20770;-53
2023/05/23 06:55:51;;;;;;;8.80;4.70;;;;;;;;;;5080320;28;20238;-52
2023/05/23 06:58:18;;;;;;;5.72;4.88;;;;;;;;;;5080614;28;20567;-53
2023/05/23 07:00:45;;;;;;;8.77;5.32;;;;;;;;;;5084365;28;20287;-51
2023/05/23 07:03:11;;;;;;;6.90;4.95;;;;;;;;;;5077926;28;20234;-51
2023/05/23 07:05:38;;;;;;;5.93;4.45;;;;;;;;;;5077182;28;20304;-53
2023/05/23 07:08:05;;;;;;;9.35;5.45;;;;;;;;;;5084661;28;20261;-52
2023/05/23 07:10:33;;;;;;;6.70;4.65;;;;;;;;;;5086946;28;20767;-52
2023/05/23 07:13:01;;;;;;;10.25;5.57;;;;;;;;;;5082133;28;20595;-52
2023/05/23 07:15:28;;;;;;;7.13;5.90;;;;;;;;;;5078010;28;20234;-53
2023/05/23 07:17:55;;;;;;;5.43;4.93;;;;;;;;;;5077799;28;20891;-52
2023/05/23 07:20:22;;;;;;;8.20;6.30;;;;;;;;;;5081286;28;20718;-52
2023/05/23 07:22:50;;;;;;;7.88;5.72;;;;;;;;;;5078484;28;20307;-52
2023/05/23 07:25:17;;;;;;;10.18;7.75;;;;;;;;;;5087852;28;20808;-53
2023/05/23 07:27:43;;;;;;;7.85;6.00;;;;;;;;;;5084459;28;20233;-53
2023/05/23 07:30:15;;;;;;;6.78;5.75;;;;;;;;;;5083098;28;20315;-53
2023/05/23 07:32:41;;;;;;;5.68;5.13;;;;;;;;;;5077660;28;20288;-53
2023/05/23 07:35:08;;;;;;;6.03;5.38;;;;;;;;;;5076837;28;20230;-52
2023/05/23 07:37:34;;;;;;;5.90;5.40;;;;;;;;;;5085501;28;20316;-52
2023/05/23 07:40:01;;;;;;;8.00;5.45;;;;;;;;;;5080366;28;20318;-52
2023/05/23 07:42:27;;;;;;;6.03;5.45;;;;;;;;;;5084252;28;20322;-53
2023/05/23 07:44:53;;;;;;;5.95;4.65;;;;;;;;;;5079800;28;20708;-53
2023/05/23 07:47:23;;;;;;;5.07;4.55;;;;;;;;;;5076337;28;20309;-53
2023/05/23 07:49:50;;;;;;;8.57;5.10;;;;;;;;;;5081223;28;20242;-54
2023/05/23 07:52:17;;;;;;;9.00;5.03;;;;;;;;;;5079764;28;21933;-53
2023/05/23 07:54:43;;;;;;;6.25;5.18;;;;;;;;;;5080543;28;20227;-52
2023/05/23 07:57:10;;;;;;;8.57;5.75;;;;;;;;;;5080546;28;20234;-54
2023/05/23 07:59:36;;;;;;;6.82;4.57;;;;;;;;;;5080244;28;20249;-52
2023/05/23 08:02:02;;;;;;;7.97;5.53;;;;;;;;;;5081438;28;20235;-53
2023/05/23 08:04:31;;;;;;;5.07;4.57;;;;;;;;;;5074246;28;20239;-52
2023/05/23 08:06:57;;;;;;;6.80;4.63;;;;;;;;;;5078552;28;21816;-52
2023/05/23 08:09:23;;;;;;;6.63;5.90;;;;;;;;;;5082986;28;20239;-53
2023/05/23 08:11:50;;;;;;;6.47;5.82;;;;;;;;;;5079084;28;20231;-52
2023/05/23 08:14:16;;;;;;;6.82;5.22;;;;;;;;;;5078817;28;20309;-52
2023/05/23 08:16:43;;;;;;;7.00;5.38;;;;;;;;;;5080352;28;20233;-53
2023/05/23 08:19:09;;;;;;;6.60;4.95;;;;;;;;;;5078073;28;20750;-53
2023/05/23 08:21:37;;;;;;;4.88;4.47;;;;;;;;;;5075910;28;20235;-53
2023/05/23 08:24:03;;;;;;;5.78;4.82;;;;;;;;;;5081334;28;20234;-54
2023/05/23 08:26:34;;;;;;;7.10;5.93;;;;;;;;;;5080924;28;20727;-53
2023/05/23 08:29:02;;;;;;;5.47;4.88;;;;;;;;;;5080314;28;20767;-52
2023/05/23 08:31:29;;;;;;;11.40;5.80;;;;;;;;;;5081900;28;20378;-52
2023/05/23 08:33:55;;;;;;;5.95;5.38;;;;;;;;;;5077155;28;20234;-53
2023/05/23 08:36:22;;;;;;;6.72;5.03;;;;;;;;;;5071560;28;20318;-53
2023/05/23 08:38:50;;;;;;;5.93;5.40;;;;;;;;;;5080472;28;20265;-53
2023/05/23 08:41:19;;;;;;;7.07;4.82;;;;;;;;;;5079198;28;20321;-53
2023/05/23 08:43:46;;;;;;;7.97;5.55;;;;;;;;;;5080303;28;20242;-53
2023/05/23 08:46:12;;;;;;;6.13;5.40;;;;;;;;;;5079624;28;20231;-53
2023/05/23 08:48:39;;;;;;;5.68;4.88;;;;;;;;;;5085430;28;20237;-55
2023/05/23 08:51:06;;;;;;;10.98;5.80;;;;;;;;;;5080763;28;20316;-53
2023/05/23 08:53:33;;;;;;;7.20;5.88;;;;;;;;;;5081503;28;20304;-53
2023/05/23 08:56:02;;;;;;;6.20;5.50;;;;;;;;;;5077622;28;20240;-52
2023/05/23 08:58:29;;;;;;;8.82;6.32;;;;;;;;;;5083021;28;20589;-52
2023/05/23 09:00:55;;;;;;;9.90;5.30;;;;;;;;;;5089026;28;20226;-52
2023/05/23 09:03:22;;;;;;;6.95;5.85;;;;;;;;;;5085128;28;20321;-53
2023/05/23 09:05:49;;;;;;;7.75;6.80;;;;;;;;;;5081577;28;20603;-53
2023/05/23 09:08:17;;;;;;;9.68;6.75;;;;;;;;;;5075525;28;20593;-53
2023/05/23 09:10:44;;;;;;;14.48;6.50;;;;;;;;;;5076596;28;20223;-52
2023/05/23 09:13:12;;;;;;;6.97;6.05;;;;;;;;;;5077972;28;20241;-52
2023/05/23 09:15:39;;;;;;;6.80;5.35;;;;;;;;;;5078093;27;20601;-52
2023/05/23 09:18:05;;;;;;;9.60;6.28;;;;;;;;;;5079620;28;20280;-53
2023/05/23 09:20:33;;;;;;;6.78;6.07;;;;;;;;;;5079351;28;20676;-53
2023/05/23 09:22:59;;;;;;;6.60;6.00;;;;;;;;;;5081897;28;20255;-53
2023/05/23 09:25:26;;;;;;;7.07;6.38;;;;;;;;;;5081767;28;20780;-52
2023/05/23 09:27:53;;;;;;;7.15;5.88;;;;;;;;;;5076948;28;20294;-52
2023/05/23 09:30:21;;;;;;;6.72;6.03;;;;;;;;;;5082395;28;20223;-52
2023/05/23 09:32:59;;;;;;;7.97;6.63;;;;;;;;;;5079718;28;20465;-53
2023/05/23 09:35:28;;;;;;;7.57;6.50;;;;;;;;;;5082267;28;20230;-52
2023/05/23 09:37:57;;;;;;;7.55;6.30;;;;;;;;;;5077859;28;20280;-53
2023/05/23 09:40:29;;;;;;;6.90;6.00;;;;;;;;;;5081651;28;20230;-53
2023/05/23 09:42:55;;;;;;;7.60;6.00;;;;;;;;;;5080896;28;20261;-52
2023/05/23 09:45:29;;;;;;;6.57;5.97;;;;;;;;;;5083752;28;20229;-52
2023/05/23 09:47:56;;;;;;;5.80;4.97;;;;;;;;;;5079790;27;20230;-53
2023/05/23 09:50:23;;;;;;;7.05;6.43;;;;;;;;;;5078791;28;20229;-53
2023/05/23 09:52:50;;;;;;;6.60;6.03;;;;;;;;;;5073872;28;20231;-53
2023/05/23 09:55:16;;;;;;;6.80;6.20;;;;;;;;;;5077570;28;20230;-53
2023/05/23 09:57:44;;;;;;;6.15;5.57;;;;;;;;;;5074889;28;20258;-52
2023/05/23 10:00:12;;;;;;;6.50;5.75;;;;;;;;;;5079450;28;20238;-54
2023/05/23 10:02:53;;;;;;;7.38;6.38;;;;;;;;;;5072867;28;20241;-52
2023/05/23 10:05:25;;;;;;;7.30;6.57;;;;;;;;;;5079392;28;20230;-53
2023/05/23 10:07:52;;;;;;;6.82;5.97;;;;;;;;;;5078595;28;20226;-52
2023/05/23 10:10:19;;;;;;;7.32;6.63;;;;;;;;;;5074001;28;20308;-52
2023/05/23 10:12:47;;;;;;;11.00;7.78;;;;;;;;;;5082023;28;20240;-53
2023/05/23 10:15:16;;;;;;;8.43;7.43;;;;;;;;;;5080258;28;20238;-52
2023/05/23 10:17:51;;;;;;;7.93;7.28;;;;;;;;;;5083108;28;21001;-54
2023/05/23 10:20:22;;;;;;;8.15;6.70;;;;;;;;;;5076156;28;20324;-52
2023/05/23 10:22:48;;;;;;;12.50;7.82;;;;;;;;;;5080822;28;20637;-53
2023/05/23 10:25:15;;;;;;;7.68;6.88;;;;;;;;;;5080590;28;20253;-52
2023/05/23 10:27:43;;;;;;;7.97;7.28;;;;;;;;;;5081586;28;20250;-51
2023/05/23 10:30:10;;;;;;;9.57;8.70;;;;;;;;;;5081408;28;20324;-53
2023/05/23 10:32:39;;;;;;;8.95;8.13;;;;;;;;;;5084002;28;20741;-53
2023/05/23 10:35:10;;;;;;;16.75;9.30;;;;;;;;;;5083222;28;20234;-52
2023/05/23 10:37:39;;;;;;;10.63;9.73;;;;;;;;;;5082928;28;20222;-52
2023/05/23 10:40:12;;;;;;;11.43;9.82;;;;;;;;;;5085770;27;20233;-53
2023/05/23 10:42:42;;;;;;;12.05;10.35;;;;;;;;;;5081814;28;20254;-53
2023/05/23 10:45:16;;;;;;;10.43;9.52;;;;;;;;;;5079327;28;20238;-53
2023/05/23 10:47:43;;;;;;;11.07;9.90;;;;;;;;;;5076471;28;20248;-53
2023/05/23 10:50:12;;;;;;;11.80;10.60;;;;;;;;;;5083384;28;20756;-52
2023/05/23 10:52:41;;;;;;;13.23;11.90;;;;;;;;;;5081941;28;20697;-53
2023/05/23 10:55:14;;;;;;;11.70;10.50;;;;;;;;;;5083319;28;20234;-53
2023/05/23 10:57:42;;;;;;;12.52;11.35;;;;;;;;;;5078592;28;20780;-53
2023/05/23 11:00:12;;;;;;;13.82;12.52;;;;;;;;;;5078585;28;20315;-52
2023/05/23 11:02:46;;;;;;;14.60;13.10;;;;;;;;;;5083466;28;20314;-53
2023/05/23 11:05:20;;;;;;;15.30;13.80;;;;;;;;;;5078680;28;20311;-53
2023/05/23 11:08:06;;;;;;;14.82;13.35;;;;;;;;;;5083953;28;20310;-51
2023/05/23 11:10:33;;;;;;;20.13;13.35;;;;;;;;;;5081700;28;20226;-53
2023/05/23 11:13:06;;;;;;;15.60;14.10;;;;;;;;;;5079094;28;20261;-53
2023/05/23 11:15:43;;;;;;;14.70;13.30;;;;;;;;;;5081391;28;20233;-53
2023/05/23 11:18:10;;;;;;;16.90;15.13;;;;;;;;;;5082764;28;20234;-53
2023/05/23 11:20:37;;;;;;;16.42;14.75;;;;;;;;;;5078938;28;20246;-53
2023/05/23 11:23:08;;;;;;;16.67;15.15;;;;;;;;;;5075473;28;20244;-53
2023/05/23 11:25:41;;;;;;;15.85;13.65;;;;;;;;;;5077567;28;20384;-53
2023/05/23 11:28:08;;;;;;;16.80;15.15;;;;;;;;;;5076632;28;20228;-53
2023/05/23 11:30:36;;;;;;;16.48;14.88;;;;;;;;;;5082896;28;20231;-53
2023/05/23 11:33:07;;;;;;;19.73;17.60;;;;;;;;;;5081491;28;20794;-54
2023/05/23 11:35:33;;;;;;;18.65;16.13;;;;;;;;;;5081604;28;20226;-53
2023/05/23 11:38:02;;;;;;;18.27;15.10;;;;;;;;;;5084891;28;20222;-52
2023/05/23 11:40:31;;;;;;;16.15;14.55;;;;;;;;;;5081690;28;20234;-53
2023/05/23 11:42:58;;;;;;;15.75;14.20;;;;;;;;;;5081563;28;20234;-53
2023/05/23 11:45:25;;;;;;;17.92;15.55;;;;;;;;;;5080931;28;20223;-53
2023/05/23 11:47:51;;;;;;;17.65;14.63;;;;;;;;;;5080235;28;20249;-52
2023/05/23 11:50:19;;;;;;;17.27;15.40;;;;;;;;;;5081625;28;20226;-53
2023/05/23 11:52:50;;;;;;;19.67;15.02;;;;;;;;;;5082999;28;20234;-51
2023/05/23 11:55:16;;;;;;;19.45;16.95;;;;;;;;;;5079975;28;20241;-53
2023/05/23 11:57:45;;;;;;;19.48;16.88;;;;;;;;;;5077916;28;20322;-53
2023/05/23 12:00:12;;;;;;;19.73;17.45;;;;;;;;;;5081606;28;20230;-54
2023/05/23 12:02:39;;;;;;;18.33;15.32;;;;;;;;;;5078949;28;20757;-52
2023/05/23 12:05:09;;;;;;;17.83;16.02;;;;;;;;;;5080564;28;20253;-53
2023/05/23 12:07:36;;;;;;;16.98;15.15;;;;;;;;;;5082880;28;20254;-53
2023/05/23 12:10:03;;;;;;;15.27;13.82;;;;;;;;;;5078862;28;20293;-52
2023/05/23 12:12:29;;;;;;;19.23;16.33;;;;;;;;;;5079644;28;20320;-53
2023/05/23 12:14:57;;;;;;;18.98;16.08;;;;;;;;;;5079069;28;20237;-52
2023/05/23 12:17:23;;;;;;;19.70;15.40;;;;;;;;;;5080888;28;20222;-54
2023/05/23 12:19:50;;;;;;;19.00;17.02;;;;;;;;;;5082545;28;20753;-52
2023/05/23 12:22:22;;;;;;;15.45;13.82;;;;;;;;;;5079269;28;20250;-52
2023/05/23 12:24:48;;;;;;;18.40;15.48;;;;;;;;;;5079705;28;20753;-52
2023/05/23 12:27:16;;;;;;;19.90;15.40;;;;;;;;;;5081356;28;20275;-52
2023/05/23 12:29:42;;;;;;;19.15;15.50;;;;;;;;;;5085368;28;20227;-53
2023/05/23 12:32:10;;;;;;;17.83;15.98;;;;;;;;;;5084437;28;20672;-52
2023/05/23 12:34:41;;;;;;;25.35;16.33;;;;;;;;;;5087036;28;20234;-52
2023/05/23 12:37:07;;;;;;;14.73;13.25;;;;;;;;;;5080338;28;20237;-52
2023/05/23 12:39:36;;;;;;;16.40;13.82;;;;;;;;;;5081679;28;21779;-54
2023/05/23 12:42:09;;;;;;;13.93;12.60;;;;;;;;;;5078881;28;20256;-53
2023/05/23 12:44:35;;;;;;;14.27;12.90;;;;;;;;;;5081497;28;20293;-53
2023/05/23 12:47:02;;;;;;;13.90;12.50;;;;;;;;;;5080319;28;20233;-52
2023/05/23 12:49:30;;;;;;;11.57;10.48;;;;;;;;;;5087104;28;20234;-53
2023/05/23 12:51:56;;;;;;;13.38;12.13;;;;;;;;;;5090488;28;20661;-56
2023/05/23 12:54:23;;;;;;;13.27;12.05;;;;;;;;;;5085683;28;20318;-53
2023/05/23 12:56:49;;;;;;;12.75;11.45;;;;;;;;;;5093305;28;20771;-52
2023/05/23 12:59:16;;;;;;;11.48;10.35;;;;;;;;;;5090391;28;20299;-52
2023/05/23 13:01:42;;;;;;;12.50;11.20;;;;;;;;;;5099055;28;20303;-53
2023/05/23 13:04:08;;;;;;;9.93;9.02;;;;;;;;;;5085101;28;20235;-56
2023/05/23 13:06:36;;;;;;;15.23;13.00;;;;;;;;;;5082834;28;20226;-53
2023/05/23 13:09:03;;;;;;;16.40;14.88;;;;;;;;;;5073411;28;20322;-53
2023/05/23 13:11:30;;;;;;;16.23;14.57;;;;;;;;;;5077143;28;20235;-53
2023/05/23 13:13:56;;;;;;;16.58;14.57;;;;;;;;;;5080490;28;20300;-53
2023/05/23 13:16:23;;;;;;;17.13;15.52;;;;;;;;;;5081364;28;20283;-56
2023/05/23 13:18:49;;;;;;;16.38;14.85;;;;;;;;;;5083853;28;20308;-53
2023/05/23 13:21:15;;;;;;;19.23;14.63;;;;;;;;;;5078037;28;20726;-52
2023/05/23 13:23:43;;;;;;;17.38;15.57;;;;;;;;;;5078515;28;20234;-53
2023/05/23 13:26:10;;;;;;;20.85;15.63;;;;;;;;;;5080881;28;20234;-55
2023/05/23 13:28:36;;;;;;;16.30;14.75;;;;;;;;;;5084176;28;20246;-53
2023/05/23 13:31:02;;;;;;;18.35;14.95;;;;;;;;;;5082660;28;21290;-53
2023/05/23 13:33:30;;;;;;;19.17;12.52;;;;;;;;;;5084387;28;20364;-54
2023/05/23 13:35:57;;;;;;;16.60;14.90;;;;;;;;;;5078199;28;20229;-53
2023/05/23 13:38:23;;;;;;;14.75;13.15;;;;;;;;;;5076828;28;20231;-53
2023/05/23 13:40:52;;;;;;;17.48;13.93;;;;;;;;;;5073983;28;20318;-52
2023/05/23 13:43:18;;;;;;;16.38;13.77;;;;;;;;;;5079653;28;20230;-55
2023/05/23 13:45:46;;;;;;;17.77;11.73;;;;;;;;;;5080021;28;20234;-52
2023/05/23 13:48:12;;;;;;;15.30;13.50;;;;;;;;;;5082031;28;20266;-52
2023/05/23 13:50:38;;;;;;;19.33;14.38;;;;;;;;;;5082633;28;20227;-52
2023/05/23 13:53:13;;;;;;;17.08;13.75;;;;;;;;;;5075987;28;20243;-53
2023/05/23 13:55:39;;;;;;;16.90;14.27;;;;;;;;;;5080143;28;20228;-53
2023/05/23 13:58:07;;;;;;;17.13;13.80;;;;;;;;;;5081089;28;20227;-53
2023/05/23 14:00:33;;;;;;;14.52;13.00;;;;;;;;;;5080318;28;20235;-53
2023/05/23 14:03:00;;;;;;;15.70;14.07;;;;;;;;;;5080317;28;20232;-55
2023/05/23 14:05:26;;;;;;;17.30;15.38;;;;;;;;;;5081351;28;20238;-53
2023/05/23 14:07:52;;;;;;;15.30;13.55;;;;;;;;;;5077466;28;20683;-52
2023/05/23 14:10:19;;;;;;;16.50;14.77;;;;;;;;;;5079802;28;20244;-52
2023/05/23 14:12:46;;;;;;;17.45;13.80;;;;;;;;;;5079519;28;20245;-53
2023/05/23 14:15:14;;;;;;;16.83;14.02;;;;;;;;;;5081595;28;20255;-53
2023/05/23 14:17:40;;;;;;;17.50;15.05;;;;;;;;;;5083395;28;20323;-52
2023/05/23 14:20:08;;;;;;;19.65;16.35;;;;;;;;;;5082735;28;20232;-52
2023/05/23 14:22:34;;;;;;;20.05;15.45;;;;;;;;;;5079582;28;20230;-52
2023/05/23 14:25:00;;;;;;;17.02;14.90;;;;;;;;;;5078272;28;20261;-52
2023/05/23 14:27:27;;;;;;;19.15;13.65;;;;;;;;;;5083403;28;20309;-51
2023/05/23 14:29:53;;;;;;;15.20;13.60;;;;;;;;;;5083759;28;20241;-51
2023/05/23 14:32:21;;;;;;;17.15;12.27;;;;;;;;;;5081054;28;20256;-52
2023/05/23 14:34:48;;;;;;;15.45;13.90;;;;;;;;;;5079040;28;20230;-52
2023/05/23 14:37:14;;;;;;;13.00;11.55;;;;;;;;;;5082613;28;20315;-50